createdAt,value
2023-02-14T00:01:57.359Z,103629.44
2023-02-14T00:04:25.833Z,103624.66
2023-02-14T00:06:54.286Z,103622.19
2023-02-14T00:09:22.602Z,103601.44
2023-02-14T00:11:51.350Z,103615.56
2023-02-14T00:14:37.067Z,103614.28
2023-02-14T00:17:07.303Z,103620.78
2023-02-14T00:19:36.196Z,103620.50
2023-02-14T00:22:05.593Z,103617.63
2023-02-14T00:24:34.404Z,103594.59
2023-02-14T00:27:02.723Z,103613.50
2023-02-14T00:29:33.398Z,103611.19
2023-02-14T00:32:04.051Z,103604.69
2023-02-14T00:34:36.523Z,103608.47
2023-02-14T00:37:05.159Z,103601.84
2023-02-14T00:39:33.595Z,103571.41
2023-02-14T00:42:02.037Z,103591.47
2023-02-14T00:44:30.580Z,103598.63
2023-02-14T00:46:59.331Z,103596.91
2023-02-14T00:49:27.639Z,103603.25
2023-02-14T00:51:57.630Z,103597.72
2023-02-14T00:54:26.290Z,103595.50
2023-02-14T00:56:54.649Z,103597.84
2023-02-14T00:59:22.987Z,103591.09
2023-02-14T01:01:51.383Z,103588.00
2023-02-14T01:04:19.808Z,103563.66
2023-02-14T01:06:48.155Z,103587.09
2023-02-14T01:09:17.889Z,103585.38
2023-02-14T01:11:46.236Z,103587.19
2023-02-14T01:14:16.308Z,103571.94
2023-02-14T01:16:44.808Z,103556.91
2023-02-14T01:19:13.323Z,103586.44
2023-02-14T01:21:45.380Z,103587.47
2023-02-14T01:24:14.077Z,103582.03
2023-02-14T01:26:45.894Z,103581.25
2023-02-14T01:29:14.391Z,103580.22
2023-02-14T01:31:42.783Z,103577.91
2023-02-14T01:34:11.240Z,103577.09
2023-02-14T01:36:41.061Z,103581.91
2023-02-14T01:39:13.611Z,103574.41
2023-02-14T01:41:48.544Z,103560.00
2023-02-14T01:44:59.541Z,103586.72
2023-02-14T01:47:30.416Z,103584.63
2023-02-14T01:50:03.816Z,103587.47
2023-02-14T01:52:38.031Z,103584.97
2023-02-14T01:55:12.219Z,103590.94
2023-02-14T01:57:45.331Z,103580.59
2023-02-14T02:00:32.372Z,103579.78
2023-02-14T02:03:02.454Z,103584.59
2023-02-14T02:05:30.982Z,103562.06
2023-02-14T02:08:01.450Z,103560.59
2023-02-14T02:10:30.395Z,103575.00
2023-02-14T02:13:07.518Z,103577.81
2023-02-14T02:15:51.052Z,103575.50
2023-02-14T02:18:28.200Z,103564.72
2023-02-14T02:21:32.658Z,103577.59
2023-02-14T02:24:27.480Z,103569.00
2023-02-14T02:27:31.542Z,103566.28
2023-02-14T02:30:56.609Z,103570.16
2023-02-14T02:34:07.831Z,103563.69
2023-02-14T02:37:02.132Z,103561.75
2023-02-14T02:39:57.715Z,103560.94
2023-02-14T02:42:37.407Z,103560.56
2023-02-14T02:45:15.068Z,103528.41
2023-02-14T02:47:53.803Z,103562.19
2023-02-14T02:50:46.711Z,103558.72
2023-02-14T02:53:23.286Z,103555.38
2023-02-14T02:56:17.105Z,103546.41
2023-02-14T02:58:52.182Z,103554.09
2023-02-14T03:01:25.618Z,103555.34
2023-02-14T03:04:18.423Z,103543.06
2023-02-14T03:06:47.473Z,103557.91
2023-02-14T03:09:54.635Z,103551.69
2023-02-14T03:12:48.602Z,103556.44
2023-02-14T03:15:30.084Z,103537.53
2023-02-14T03:18:06.098Z,103546.69
2023-02-14T03:20:44.898Z,103553.97
2023-02-14T03:23:21.876Z,103521.66
2023-02-14T03:26:07.164Z,103518.28
2023-02-14T03:28:46.970Z,103540.44
2023-02-14T03:31:25.282Z,103542.50
2023-02-14T03:34:02.630Z,103543.94
2023-02-14T03:36:38.554Z,103543.50
2023-02-14T03:39:14.743Z,103532.34
2023-02-14T03:41:52.200Z,103548.91
2023-02-14T03:44:28.456Z,103542.56
2023-02-14T03:47:03.911Z,103550.47
2023-02-14T03:49:37.594Z,103546.00
2023-02-14T03:52:17.488Z,103553.13
2023-02-14T03:54:49.053Z,103536.78
2023-02-14T03:57:25.526Z,103541.47
2023-02-14T03:59:55.124Z,103522.78
2023-02-14T04:02:30.600Z,103548.53
2023-02-14T04:05:02.083Z,103548.75
2023-02-14T04:07:30.607Z,103541.75
2023-02-14T04:09:58.944Z,103534.94
2023-02-14T04:12:37.467Z,103556.66
2023-02-14T04:15:07.815Z,103532.00
2023-02-14T04:17:53.767Z,103518.66
2023-02-14T04:20:22.426Z,103537.97
2023-02-14T04:22:55.028Z,103560.34
2023-02-14T04:25:24.931Z,103561.69
2023-02-14T04:27:54.647Z,103543.16
2023-02-14T04:30:23.351Z,103555.88
2023-02-14T04:32:51.673Z,103530.91
2023-02-14T04:35:20.075Z,103549.72
2023-02-14T04:37:48.443Z,103529.88
2023-02-14T04:40:17.922Z,103540.88
2023-02-14T04:42:47.193Z,103543.72
2023-02-14T04:45:17.011Z,103502.16
2023-02-14T04:47:45.334Z,103541.13
2023-02-14T04:50:15.005Z,103527.28
2023-02-14T04:52:43.348Z,103528.50
2023-02-14T04:55:12.229Z,103520.22
2023-02-14T04:57:40.665Z,103546.09
2023-02-14T05:00:10.562Z,103514.69
2023-02-14T05:02:40.296Z,103526.25
2023-02-14T05:05:09.805Z,103545.84
2023-02-14T05:07:38.622Z,103542.34
2023-02-14T05:10:08.380Z,103535.38
2023-02-14T05:12:36.932Z,103509.69
2023-02-14T05:15:05.670Z,103538.59
2023-02-14T05:17:34.059Z,103530.28
2023-02-14T05:20:04.295Z,103541.38
2023-02-14T05:22:32.712Z,103536.84
2023-02-14T05:25:01.253Z,103520.66
2023-02-14T05:27:29.648Z,103541.88
2023-02-14T05:29:58.099Z,103527.59
2023-02-14T05:32:26.570Z,103528.66
2023-02-14T05:34:54.875Z,103504.81
2023-02-14T05:37:24.577Z,103545.50
2023-02-14T05:39:53.042Z,103549.13
2023-02-14T05:42:21.323Z,103541.88
2023-02-14T05:44:49.693Z,103547.16
2023-02-14T05:47:18.064Z,103546.69
2023-02-14T05:49:46.512Z,103547.78
2023-02-14T05:52:14.955Z,103543.50
2023-02-14T05:54:44.900Z,103544.84
2023-02-14T05:57:13.269Z,103549.84
2023-02-14T05:59:43.998Z,103531.81
2023-02-14T06:02:12.480Z,103552.56
2023-02-14T06:04:41.236Z,103543.25
2023-02-14T06:07:09.994Z,103549.34
2023-02-14T06:09:38.311Z,103546.09
2023-02-14T06:12:08.911Z,103542.00
2023-02-14T06:14:37.570Z,103540.94
2023-02-14T06:17:06.328Z,103547.94
2023-02-14T06:19:34.741Z,103546.19
2023-02-14T06:22:03.070Z,103545.69
2023-02-14T06:24:31.442Z,103551.91
2023-02-14T06:27:00.957Z,103534.78
2023-02-14T06:29:30.748Z,103549.16
2023-02-14T06:32:05.740Z,103548.28
2023-02-14T06:34:34.733Z,103551.13
2023-02-14T06:37:03.110Z,103545.03
2023-02-14T06:39:31.573Z,103556.72
2023-02-14T06:41:59.876Z,103548.03
2023-02-14T06:44:28.317Z,103546.09
2023-02-14T06:46:58.028Z,103541.28
2023-02-14T06:49:26.493Z,103542.31
2023-02-14T06:51:54.855Z,103538.69
2023-02-14T06:54:23.320Z,103521.88
2023-02-14T06:56:51.870Z,103546.56
2023-02-14T06:59:20.224Z,103500.88
2023-02-14T07:01:48.923Z,103544.50
2023-02-14T07:04:18.825Z,103545.03
2023-02-14T07:06:47.734Z,103535.41
2023-02-14T07:09:17.911Z,103547.91
2023-02-14T07:11:46.950Z,103543.91
2023-02-14T07:14:15.583Z,103526.25
2023-02-14T07:16:43.957Z,103546.22
2023-02-14T07:19:12.426Z,103536.03
2023-02-14T07:21:42.236Z,103542.25
2023-02-14T07:24:10.616Z,103553.41
2023-02-14T07:26:39.089Z,103553.41
2023-02-14T07:29:07.806Z,103534.41
2023-02-14T07:31:36.250Z,103549.59
2023-02-14T07:34:04.745Z,103550.78
2023-02-14T07:36:33.205Z,103549.25
2023-02-14T07:39:02.954Z,103554.97
2023-02-14T07:41:31.323Z,103520.00
2023-02-14T07:44:00.244Z,103542.06
2023-02-14T07:46:28.791Z,103545.03
2023-02-14T07:48:57.233Z,103543.50
2023-02-14T07:51:25.520Z,103555.03
2023-02-14T07:53:53.847Z,103551.03
2023-02-14T07:56:23.610Z,103555.59
2023-02-14T07:58:51.991Z,103523.63
2023-02-14T08:01:21.077Z,103556.25
2023-02-14T08:03:50.079Z,103563.13
2023-02-14T08:06:19.963Z,103533.34
2023-02-14T08:08:49.375Z,103544.72
2023-02-14T08:11:38.324Z,103558.34
2023-02-14T08:14:08.183Z,103551.09
2023-02-14T08:16:38.160Z,103556.38
2023-02-14T08:19:06.692Z,103554.31
2023-02-14T08:21:35.079Z,103517.16
2023-02-14T08:24:03.620Z,103561.97
2023-02-14T08:26:32.556Z,103562.22
2023-02-14T08:29:02.338Z,103564.53
2023-02-14T08:31:36.102Z,103570.09
2023-02-14T08:34:05.440Z,103553.91
2023-02-14T08:36:34.454Z,103557.59
2023-02-14T08:39:04.501Z,103555.91
2023-02-14T08:41:33.148Z,103562.19
2023-02-14T08:44:02.055Z,103534.22
2023-02-14T08:46:31.897Z,103559.59
2023-02-14T08:49:00.478Z,103536.88
2023-02-14T08:51:28.883Z,103547.63
2023-02-14T08:53:57.264Z,103556.66
2023-02-14T08:56:25.585Z,103564.13
2023-02-14T08:58:55.194Z,103537.53
2023-02-14T09:01:23.758Z,103561.03
2023-02-14T09:03:53.585Z,103538.16
2023-02-14T09:06:22.047Z,103538.41
2023-02-14T09:08:50.942Z,103537.22
2023-02-14T09:11:22.940Z,103506.47
2023-02-14T09:13:53.133Z,103555.28
2023-02-14T09:16:23.462Z,103556.97
2023-02-14T09:18:54.641Z,103542.25
2023-02-14T09:21:25.850Z,103550.84
2023-02-14T09:23:54.838Z,103533.91
2023-02-14T09:26:23.402Z,103523.28
2023-02-14T09:28:51.817Z,103534.88
2023-02-14T09:31:24.299Z,103546.81
2023-02-14T09:34:11.399Z,103553.28
2023-02-14T09:36:57.779Z,103555.59
2023-02-14T09:39:26.285Z,103545.25
2023-02-14T09:42:11.124Z,103536.88
2023-02-14T09:44:43.373Z,103510.16
2023-02-14T09:47:22.097Z,103526.63
2023-02-14T09:49:54.382Z,103534.88
2023-02-14T09:52:27.375Z,103531.75
2023-02-14T09:54:59.074Z,103530.78
2023-02-14T09:57:40.073Z,103535.00
2023-02-14T10:00:21.653Z,103528.63
2023-02-14T10:03:03.027Z,103527.38
2023-02-14T10:05:38.583Z,103529.94
2023-02-14T10:08:23.954Z,103514.88
2023-02-14T10:11:08.106Z,103493.13
2023-02-14T10:13:44.844Z,103512.63
2023-02-14T10:16:21.814Z,103507.56
2023-02-14T10:18:58.175Z,103496.63
2023-02-14T10:21:34.927Z,103486.47
2023-02-14T10:24:12.438Z,103480.50
2023-02-14T10:26:42.041Z,103477.34
2023-02-14T10:29:16.543Z,103444.94
2023-02-14T10:31:55.795Z,103474.94
2023-02-14T10:34:34.432Z,103470.16
2023-02-14T10:37:25.290Z,103474.00
2023-02-14T10:40:11.493Z,103470.56
2023-02-14T10:42:52.686Z,103434.56
2023-02-14T10:45:33.963Z,103425.59
2023-02-14T10:48:13.297Z,103449.06
2023-02-14T10:50:55.929Z,103457.50
2023-02-14T10:53:38.351Z,103454.63
2023-02-14T10:56:18.594Z,103439.31
2023-02-14T10:58:50.452Z,103438.28
2023-02-14T11:01:20.785Z,103419.97
2023-02-14T11:03:58.569Z,103431.06
2023-02-14T11:06:27.205Z,103417.91
2023-02-14T11:08:57.458Z,103428.53
2023-02-14T11:11:31.527Z,103426.91
2023-02-14T11:13:59.972Z,103432.38
2023-02-14T11:16:33.893Z,103387.03
2023-02-14T11:19:20.148Z,103409.44
2023-02-14T11:21:51.809Z,103409.31
2023-02-14T11:24:29.908Z,103391.97
2023-02-14T11:27:01.950Z,103399.50
2023-02-14T11:29:36.238Z,103410.72
2023-02-14T11:32:10.754Z,103399.19
2023-02-14T11:34:42.552Z,103372.81
2023-02-14T11:37:28.003Z,103394.69
2023-02-14T11:40:01.436Z,103390.53
2023-02-14T11:42:44.423Z,103386.75
2023-02-14T11:45:32.911Z,103374.50
2023-02-14T11:48:22.362Z,103355.19
2023-02-14T11:51:05.349Z,103365.63
2023-02-14T11:53:46.032Z,103358.69
2023-02-14T11:56:17.810Z,103357.63
2023-02-14T11:58:53.097Z,103337.78
2023-02-14T12:01:27.818Z,103327.81
2023-02-14T12:04:01.059Z,103320.50
2023-02-14T12:06:33.037Z,103331.16
2023-02-14T12:09:14.481Z,103328.25
2023-02-14T12:11:57.599Z,103334.34
2023-02-14T12:14:30.101Z,103325.66
2023-02-14T12:17:05.790Z,103314.75
2023-02-14T12:19:43.759Z,103319.19
2023-02-14T12:22:18.082Z,103315.03
2023-02-14T12:24:55.178Z,103309.97
2023-02-14T12:27:29.194Z,103303.59
2023-02-14T12:30:05.294Z,103295.06
2023-02-14T12:32:34.921Z,103280.38
2023-02-14T12:35:07.839Z,103290.28
2023-02-14T12:38:02.685Z,103289.81
2023-02-14T12:40:46.730Z,103255.34
2023-02-14T12:43:45.767Z,103284.69
2023-02-14T12:46:36.404Z,103271.88
2023-02-14T12:49:49.609Z,103267.78
2023-02-14T12:52:42.836Z,103249.63
2023-02-14T12:55:34.376Z,103256.47
2023-02-14T12:58:12.879Z,103246.63
2023-02-14T13:01:04.414Z,103241.97
2023-02-14T13:03:59.156Z,103242.13
2023-02-14T13:06:32.084Z,103241.38
2023-02-14T13:09:19.525Z,103237.53
2023-02-14T13:12:02.641Z,103234.06
2023-02-14T13:14:51.456Z,103228.22
2023-02-14T13:17:34.909Z,103232.06
2023-02-14T13:20:30.962Z,103215.28
2023-02-14T13:23:06.169Z,103218.22
2023-02-14T13:25:42.879Z,103218.41
2023-02-14T13:28:15.687Z,103218.94
2023-02-14T13:30:44.170Z,103214.41
2023-02-14T13:33:28.369Z,103204.00
2023-02-14T13:36:01.618Z,103219.34
2023-02-14T13:38:32.263Z,103195.28
2023-02-14T13:41:02.961Z,103196.88
2023-02-14T13:43:52.676Z,103201.56
2023-02-14T13:46:54.207Z,103207.34
2023-02-14T13:49:31.731Z,103204.72
2023-02-14T13:52:03.834Z,103192.88
2023-02-14T13:54:44.890Z,103189.47
2023-02-14T13:57:33.939Z,103191.50
2023-02-14T14:00:41.591Z,103186.16
2023-02-14T14:03:16.558Z,103174.53
2023-02-14T14:06:04.724Z,103173.91
2023-02-14T14:08:49.422Z,103174.75
2023-02-14T14:11:58.524Z,103187.31
2023-02-14T14:14:39.743Z,103182.91
2023-02-14T14:17:28.746Z,103175.03
2023-02-14T14:19:58.082Z,103176.06
2023-02-14T14:22:29.128Z,103152.88
2023-02-14T14:25:06.418Z,103163.38
2023-02-14T14:27:41.448Z,103141.00
2023-02-14T14:30:20.527Z,103135.47
2023-02-14T14:32:48.992Z,103162.38
2023-02-14T14:35:21.998Z,103137.31
2023-02-14T14:37:54.580Z,103153.66
2023-02-14T14:40:28.793Z,103146.34
2023-02-14T14:43:01.948Z,103164.91
2023-02-14T14:45:32.403Z,103166.59
2023-02-14T14:48:09.250Z,103154.06
2023-02-14T14:50:39.852Z,103149.63
2023-02-14T14:53:20.788Z,103141.63
2023-02-14T14:55:52.301Z,103139.97
2023-02-14T14:58:40.307Z,103160.28
2023-02-14T15:01:16.088Z,103167.09
2023-02-14T15:03:45.608Z,103166.38
2023-02-14T15:06:20.089Z,103163.22
2023-02-14T15:08:51.481Z,103149.59
2023-02-14T15:11:42.150Z,103163.69
2023-02-14T15:14:18.202Z,103156.63
2023-02-14T15:16:49.607Z,103157.19
2023-02-14T15:19:21.925Z,103140.31
2023-02-14T15:21:51.089Z,103152.72
2023-02-14T15:24:21.417Z,103145.28
2023-02-14T15:26:53.468Z,103126.78
2023-02-14T15:29:26.463Z,103152.47
2023-02-14T15:31:57.514Z,103142.09
2023-02-14T15:34:28.787Z,103148.88
2023-02-14T15:37:03.565Z,103145.03
2023-02-14T15:39:38.048Z,103119.66
2023-02-14T15:42:07.457Z,103139.97
2023-02-14T15:44:35.991Z,103142.31
2023-02-14T15:47:06.987Z,103147.41
2023-02-14T15:49:40.938Z,103135.88
2023-02-14T15:52:14.177Z,103151.25
2023-02-14T15:54:47.395Z,103144.72
2023-02-14T15:57:25.163Z,103142.06
2023-02-14T15:59:54.009Z,103150.81
2023-02-14T16:02:36.091Z,103104.41
2023-02-14T16:05:08.020Z,103146.63
2023-02-14T16:07:36.684Z,103130.28
2023-02-14T16:10:27.909Z,103141.69
2023-02-14T16:13:00.735Z,103127.50
2023-02-14T16:15:31.831Z,103153.84
2023-02-14T16:18:01.142Z,103137.59
2023-02-14T16:20:40.926Z,103152.41
2023-02-14T16:23:18.776Z,103161.81
2023-02-14T16:25:49.172Z,103147.38
2023-02-14T16:28:18.878Z,103129.13
2023-02-14T16:30:49.678Z,103158.50
2023-02-14T16:33:22.864Z,103142.47
2023-02-14T16:35:51.971Z,103158.50
2023-02-14T16:38:23.215Z,103149.47
2023-02-14T16:40:55.517Z,103151.06
2023-02-14T16:43:23.892Z,103157.38
2023-02-14T16:45:52.316Z,103153.03
2023-02-14T16:48:21.179Z,103132.16
2023-02-14T16:50:49.666Z,103146.16
2023-02-14T16:53:26.859Z,103142.97
2023-02-14T16:55:58.402Z,103154.34
2023-02-14T16:58:33.071Z,103162.91
2023-02-14T17:01:01.686Z,103165.72
2023-02-14T17:03:30.300Z,103157.94
2023-02-14T17:06:01.363Z,103162.38
2023-02-14T17:08:30.707Z,103157.75
2023-02-14T17:11:02.178Z,103171.53
2023-02-14T17:13:34.830Z,103175.97
2023-02-14T17:16:04.595Z,103173.78
2023-02-14T17:18:37.156Z,103147.66
2023-02-14T17:21:06.740Z,103148.38
2023-02-14T17:23:35.145Z,103170.41
2023-02-14T17:26:06.278Z,103182.41
2023-02-14T17:28:34.894Z,103162.16
2023-02-14T17:31:03.582Z,103173.28
2023-02-14T17:33:33.683Z,103182.16
2023-02-14T17:36:06.703Z,103169.06
2023-02-14T17:38:36.216Z,103182.13
2023-02-14T17:41:14.970Z,103140.50
2023-02-14T17:43:43.796Z,103184.56
2023-02-14T17:46:14.282Z,103172.19
2023-02-14T17:48:45.354Z,103183.97
2023-02-14T17:51:14.742Z,103191.94
2023-02-14T17:53:43.714Z,103169.47
2023-02-14T17:56:17.942Z,103173.34
2023-02-14T17:58:47.814Z,103180.53
2023-02-14T18:01:18.900Z,103179.13
2023-02-14T18:03:47.675Z,103187.28
2023-02-14T18:06:16.699Z,103161.88
2023-02-14T18:08:49.333Z,103165.69
2023-02-14T18:11:20.924Z,103184.25
2023-02-14T18:13:49.741Z,103181.88
2023-02-14T18:16:20.277Z,103187.56
2023-02-14T18:18:49.369Z,103182.34
2023-02-14T18:21:20.957Z,103156.56
2023-02-14T18:23:49.794Z,103165.94
2023-02-14T18:26:20.327Z,103162.06
2023-02-14T18:28:50.952Z,103172.69
2023-02-14T18:31:20.235Z,103152.13
2023-02-14T18:33:50.699Z,103175.81
2023-02-14T18:36:24.182Z,103175.84
2023-02-14T18:38:54.759Z,103174.56
2023-02-14T18:41:29.579Z,103148.44
2023-02-14T18:43:58.362Z,103166.00
2023-02-14T18:46:29.047Z,103167.44
2023-02-14T18:48:58.607Z,103171.31
2023-02-14T18:51:29.357Z,103176.13
2023-02-14T18:53:59.665Z,103175.97
2023-02-14T18:56:32.644Z,103174.78
2023-02-14T18:59:03.906Z,103175.88
2023-02-14T19:01:36.903Z,103177.22
2023-02-14T19:04:08.953Z,103165.97
2023-02-14T19:06:37.844Z,103151.34
2023-02-14T19:09:11.456Z,103172.00
2023-02-14T19:11:42.046Z,103168.88
2023-02-14T19:14:12.671Z,103141.53
2023-02-14T19:16:50.124Z,103179.19
2023-02-14T19:19:18.819Z,103177.09
2023-02-14T19:21:47.555Z,103176.88
2023-02-14T19:24:18.312Z,103157.34
2023-02-14T19:26:48.413Z,103155.16
2023-02-14T19:29:19.577Z,103152.38
2023-02-14T19:31:50.145Z,103124.72
2023-02-14T19:34:21.158Z,103173.28
2023-02-14T19:36:52.817Z,103174.97
2023-02-14T19:39:23.094Z,103161.94
2023-02-14T19:41:53.344Z,103173.22
2023-02-14T19:44:23.145Z,103129.94
2023-02-14T19:46:54.323Z,103149.72
2023-02-14T19:49:23.282Z,103168.00
2023-02-14T19:51:52.338Z,103151.38
2023-02-14T19:54:24.093Z,103178.00
2023-02-14T19:56:56.091Z,103178.31
2023-02-14T19:59:24.702Z,103138.25
2023-02-14T20:01:54.871Z,103126.00
2023-02-14T20:04:26.276Z,103166.63
2023-02-14T20:06:55.203Z,103141.84
2023-02-14T20:09:25.649Z,103159.06
2023-02-14T20:11:57.992Z,103163.94
2023-02-14T20:14:28.874Z,103147.03
2023-02-14T20:17:00.723Z,103142.56
2023-02-14T20:19:33.594Z,103149.69
2023-02-14T20:22:02.381Z,103129.56
2023-02-14T20:24:33.270Z,103128.03
2023-02-14T20:27:03.287Z,103148.56
2023-02-14T20:29:31.956Z,103149.56
2023-02-14T20:32:03.611Z,103120.34
2023-02-14T20:34:32.318Z,103126.09
2023-02-14T20:37:00.919Z,103141.03
2023-02-14T20:39:31.561Z,103138.72
2023-02-14T20:42:00.118Z,103124.94
2023-02-14T20:44:30.123Z,103137.06
2023-02-14T20:46:59.122Z,103141.41
2023-02-14T20:49:30.735Z,103137.66
2023-02-14T20:51:59.688Z,103115.13
2023-02-14T20:54:30.109Z,103114.66
2023-02-14T20:56:59.151Z,103083.13
2023-02-14T20:59:29.183Z,103128.38
2023-02-14T21:01:59.507Z,103128.94
2023-02-14T21:04:28.444Z,103122.47
2023-02-14T21:06:57.878Z,103118.84
2023-02-14T21:09:27.137Z,103112.34
2023-02-14T21:11:55.479Z,103115.03
2023-02-14T21:14:23.853Z,103108.41
2023-02-14T21:16:53.512Z,103112.84
2023-02-14T21:19:22.314Z,103108.69
2023-02-14T21:21:50.702Z,103104.19
2023-02-14T21:24:19.189Z,103115.94
2023-02-14T21:26:47.611Z,103106.91
2023-02-14T21:29:16.312Z,103080.75
2023-02-14T21:31:44.910Z,103080.59
2023-02-14T21:34:17.210Z,103103.97
2023-02-14T21:36:45.557Z,103101.84
2023-02-14T21:39:14.216Z,103104.13
2023-02-14T21:41:42.566Z,103097.81
2023-02-14T21:44:31.296Z,103095.53
2023-02-14T21:46:58.690Z,103083.03
2023-02-14T21:49:45.826Z,103104.81
2023-02-14T21:52:14.223Z,103103.47
2023-02-14T21:54:42.997Z,103103.78
2023-02-14T21:57:11.391Z,103096.47
2023-02-14T21:59:41.838Z,103097.94
2023-02-14T22:02:12.091Z,103090.81
2023-02-14T22:04:43.300Z,103098.88
2023-02-14T22:07:11.683Z,103092.56
2023-02-14T22:09:40.006Z,103080.81
2023-02-14T22:12:08.842Z,103086.88
2023-02-14T22:14:37.193Z,103100.41
2023-02-14T22:17:05.685Z,103074.59
2023-02-14T22:19:35.285Z,103093.28
2023-02-14T22:22:05.648Z,103088.25
2023-02-14T22:24:33.983Z,103090.47
2023-02-14T22:27:02.331Z,103094.66
2023-02-14T22:29:30.862Z,103092.06
2023-02-14T22:31:59.330Z,103077.72
2023-02-14T22:34:28.194Z,103073.81
2023-02-14T22:36:56.583Z,103081.69
2023-02-14T22:39:26.337Z,103082.34
2023-02-14T22:41:54.690Z,103085.19
2023-02-14T22:44:23.063Z,103081.25
2023-02-14T22:46:51.544Z,103082.38
2023-02-14T22:49:19.964Z,103073.09
2023-02-14T22:51:48.291Z,103069.16
2023-02-14T22:54:17.594Z,103075.13
2023-02-14T22:56:50.174Z,103074.34
2023-02-14T22:59:21.739Z,103053.94
2023-02-14T23:01:51.445Z,103050.66
2023-02-14T23:04:22.967Z,103056.22
2023-02-14T23:06:53.077Z,103079.66
2023-02-14T23:09:22.235Z,103067.34
2023-02-14T23:11:52.328Z,103071.97
2023-02-14T23:14:39.215Z,103069.47
2023-02-14T23:17:25.552Z,103078.97
2023-02-14T23:20:11.292Z,103073.75
2023-02-14T23:22:41.545Z,103079.97
2023-02-14T23:25:12.770Z,103084.88
2023-02-14T23:27:44.580Z,103080.09
2023-02-14T23:30:16.098Z,103029.28
2023-02-14T23:32:45.121Z,103028.59
2023-02-14T23:35:13.772Z,103072.00
2023-02-14T23:37:42.533Z,103064.75
2023-02-14T23:40:11.924Z,103066.19
2023-02-14T23:42:40.248Z,103070.84
2023-02-14T23:45:28.263Z,103076.19
2023-02-14T23:47:56.679Z,103074.31
2023-02-14T23:50:25.036Z,103056.59
2023-02-14T23:52:53.507Z,103063.50
2023-02-14T23:55:21.854Z,103045.66
2023-02-14T23:57:50.164Z,103050.38
